aviador You're here:

KGSO Decoded Metar

GREENSBORO in NC, USA
Report Time2018-05-26 14:54:00
UTC Time2018-05-26 15:36:31
Flight Rules mvfr MVFR
Wind230° at 07 kt
W.Decomp.*RWY 23: 6.9 kt HW 1.0 kt RCW
RWY 32: 1.0 kt HW 6.9 kt LCW
W.Rank230° ranks 3
Current wind is below 230° avg. (7.1)
Visibility9999 m
Phenomena:N/A
Clouds:Overcast 017 Hf
Expected CloudBase > 1,200 ft AGL from Temp-Dew spread
Ceiling1,700 ft
Temp24°C (ISA +11)
Dew Point21°C (83% RH)
QNH1016 hPa
Density Alt2,385 ft
Elevation902 ft
Report Wrong Elevation
Raw Report
KGSO 261454Z 23007KT 10SM OVC017 24/21 A2999 RMK AO2 SLP144
T02390206 58002=

Extra information for KGSO:More info

Metar Taf Metar & Taf Last 4 Metars F.Rules Stats Wind Profile Meteogram Temp Stats Airport Information Weather charts Add Link Nearby VenuesMetar ALERT Operation Metar Decoded Social comments

AIRNAV info for KGSO